Time;durP1;ratioP1;P1;durP2;ratioP2;P2;SDS_P1;SDS_P2;PMS_P1;PMS_P2;Temp;Humidity;BMP_temperature;BMP_pressure;BME280_temperature;BME280_humidity;BME280_pressure;Samples;Min_cycle;Max_cycle;Signal;HPM_P1;HPM_P2
2023/03/15 00:00:44;;;;;;;10.93;4.30;;;2.80;99.90;;;;;;6079915;23;20172;-70
2023/03/15 00:03:10;;;;;;;6.70;3.10;;;2.80;99.90;;;;;;6076644;23;20365;-72
2023/03/15 00:05:36;;;;;;;11.40;2.60;;;2.80;99.90;;;;;;6076483;23;20386;-72
2023/03/15 00:08:02;;;;;;;7.50;2.70;;;2.80;99.90;;;;;;6073555;23;20245;-69
2023/03/15 00:10:28;;;;;;;7.53;3.17;;;2.80;99.90;;;;;;6070698;23;20408;-70
2023/03/15 00:12:54;;;;;;;14.40;3.90;;;2.90;99.90;;;;;;6073585;23;20421;-71
2023/03/15 00:15:19;;;;;;;7.80;3.47;;;2.90;99.90;;;;;;6073115;23;20623;-71
2023/03/15 00:17:45;;;;;;;9.33;2.90;;;2.90;99.90;;;;;;6075073;23;20389;-72
2023/03/15 00:20:13;;;;;;;5.47;2.70;;;2.80;99.90;;;;;;6076668;23;20169;-73
2023/03/15 00:22:39;;;;;;;6.57;3.30;;;2.90;99.90;;;;;;6068921;23;20466;-72
2023/03/15 00:25:06;;;;;;;9.87;3.60;;;2.90;99.90;;;;;;6070220;23;20400;-71
2023/03/15 00:27:31;;;;;;;7.60;2.70;;;3.00;99.90;;;;;;6069685;23;20374;-73
2023/03/15 00:29:57;;;;;;;9.77;4.70;;;3.10;99.90;;;;;;6070218;23;20424;-70
2023/03/15 00:32:23;;;;;;;8.33;2.40;;;3.10;99.90;;;;;;6071507;23;20373;-71
2023/03/15 00:34:48;;;;;;;10.70;3.27;;;3.20;99.90;;;;;;6071195;23;20181;-72
2023/03/15 00:37:18;;;;;;;8.67;2.83;;;3.20;99.90;;;;;;6076611;23;20152;-70
2023/03/15 00:39:47;;;;;;;8.70;2.87;;;3.20;99.90;;;;;;6071915;23;20180;-71
2023/03/15 00:42:14;;;;;;;4.30;2.30;;;3.30;99.90;;;;;;6069698;23;20401;-72
2023/03/15 00:44:41;;;;;;;4.33;2.30;;;3.30;99.90;;;;;;6075356;23;20376;-74
2023/03/15 00:47:09;;;;;;;7.27;3.43;;;3.30;99.90;;;;;;6077879;23;20358;-71
2023/03/15 00:49:35;;;;;;;7.40;3.07;;;3.30;99.90;;;;;;6079826;23;20409;-73
2023/03/15 00:52:00;;;;;;;8.03;3.20;;;3.20;99.90;;;;;;6074220;23;20397;-70
2023/03/15 00:54:26;;;;;;;11.20;2.87;;;3.20;99.90;;;;;;6073018;23;20153;-72
2023/03/15 00:56:52;;;;;;;11.87;3.60;;;3.20;99.90;;;;;;6069836;23;20157;-71
2023/03/15 00:59:17;;;;;;;11.00;4.00;;;3.20;99.90;;;;;;6070635;23;20141;-71
2023/03/15 01:01:47;;;;;;;6.23;3.13;;;3.30;99.90;;;;;;6079294;23;20468;-74
2023/03/15 01:04:13;;;;;;;7.63;3.30;;;3.30;99.90;;;;;;6080511;23;20149;-72
2023/03/15 01:06:41;;;;;;;9.00;3.60;;;3.40;99.90;;;;;;6079894;23;20389;-73
2023/03/15 01:09:07;;;;;;;8.90;3.57;;;3.50;99.90;;;;;;6053835;23;20227;-71
2023/03/15 01:11:33;;;;;;;19.83;5.37;;;3.40;99.90;;;;;;6081409;23;20445;-72
2023/03/15 01:13:59;;;;;;;11.20;3.63;;;3.50;99.90;;;;;;6078527;23;20755;-71
2023/03/15 01:16:26;;;;;;;7.47;4.10;;;3.40;99.90;;;;;;6053752;23;20401;-72
2023/03/15 01:18:52;;;;;;;14.57;4.00;;;3.50;99.90;;;;;;6078906;23;20369;-72
2023/03/15 01:21:20;;;;;;;6.50;4.10;;;3.50;99.90;;;;;;6081511;23;20438;-71
2023/03/15 01:23:47;;;;;;;9.93;3.40;;;3.50;99.90;;;;;;6079664;23;20373;-74
2023/03/15 01:26:14;;;;;;;8.00;3.60;;;3.40;99.90;;;;;;6082095;23;20602;-72
2023/03/15 01:28:42;;;;;;;8.30;4.30;;;3.50;99.90;;;;;;6078649;23;20638;-71
2023/03/15 01:31:18;;;;;;;7.30;2.77;;;3.40;99.90;;;;;;6073783;23;20405;-71
2023/03/15 01:33:44;;;;;;;8.53;3.63;;;3.50;99.90;;;;;;6074334;23;20404;-71
2023/03/15 01:36:10;;;;;;;8.97;4.53;;;3.50;99.90;;;;;;6076968;23;20370;-71
2023/03/15 01:38:36;;;;;;;9.30;4.17;;;3.50;99.90;;;;;;6078044;23;20382;-72
2023/03/15 01:41:02;;;;;;;11.83;5.20;;;3.50;99.90;;;;;;6076539;23;20420;-72
2023/03/15 01:43:31;;;;;;;7.67;5.27;;;3.50;99.90;;;;;;6074143;23;20370;-71
2023/03/15 01:46:18;;;;;;;9.53;4.50;;;3.40;99.90;;;;;;6072842;23;20396;-71
2023/03/15 01:49:06;;;;;;;7.73;3.90;;;3.30;99.90;;;;;;6050682;23;20380;-71
2023/03/15 01:51:38;;;;;;;12.53;4.03;;;3.20;99.90;;;;;;6074574;23;20377;-72
2023/03/15 01:54:09;;;;;;;7.57;4.87;;;3.10;99.90;;;;;;6074236;23;20399;-71
2023/03/15 01:56:39;;;;;;;8.13;3.93;;;3.00;99.90;;;;;;6079673;23;20385;-72
2023/03/15 01:59:13;;;;;;;9.03;5.17;;;2.90;99.90;;;;;;6076384;23;20437;-72
2023/03/15 02:01:44;;;;;;;12.00;4.90;;;2.80;99.90;;;;;;6077287;23;20421;-71
2023/03/15 02:04:15;;;;;;;7.93;3.50;;;2.70;99.90;;;;;;6049053;23;20401;-70
2023/03/15 02:06:45;;;;;;;7.03;3.00;;;2.70;99.90;;;;;;6072609;23;20378;-71
2023/03/15 02:09:16;;;;;;;9.27;5.33;;;2.70;99.90;;;;;;6071878;23;20378;-71
2023/03/15 02:11:43;;;;;;;7.97;4.40;;;2.60;99.90;;;;;;6072048;23;20729;-71
2023/03/15 02:14:12;;;;;;;8.23;5.00;;;2.60;99.90;;;;;;6075063;23;20445;-71
2023/03/15 02:16:39;;;;;;;7.10;4.30;;;2.60;99.90;;;;;;6075416;23;20381;-72
2023/03/15 02:19:19;;;;;;;6.47;4.00;;;2.60;99.90;;;;;;6071643;23;20370;-71
2023/03/15 02:22:10;;;;;;;6.80;4.30;;;2.40;99.90;;;;;;6070344;23;20429;-71
2023/03/15 02:24:43;;;;;;;5.20;3.63;;;2.30;99.90;;;;;;6069762;23;20388;-71
2023/03/15 02:27:08;;;;;;;5.00;3.70;;;2.20;99.90;;;;;;6069196;23;20397;-71
2023/03/15 02:29:34;;;;;;;8.37;4.80;;;2.10;99.90;;;;;;6068652;23;20398;-72
2023/03/15 02:32:03;;;;;;;3.67;2.00;;;1.90;99.90;;;;;;6069329;23;20156;-70
2023/03/15 02:34:30;;;;;;;1.93;1.30;;;1.80;99.90;;;;;;6070150;23;20417;-73
2023/03/15 02:36:56;;;;;;;2.23;1.73;;;1.80;99.90;;;;;;6071974;23;20663;-72
2023/03/15 02:39:22;;;;;;;1.10;0.93;;;1.70;99.90;;;;;;6068656;23;20397;-71
2023/03/15 02:41:54;;;;;;;1.40;0.90;;;1.50;99.90;;;;;;6070544;23;20220;-71
2023/03/15 02:44:32;;;;;;;1.00;0.70;;;1.50;99.90;;;;;;6073418;23;20473;-72
2023/03/15 02:47:08;;;;;;;0.83;0.60;;;1.30;99.90;;;;;;6072714;23;20441;-74
2023/03/15 02:49:39;;;;;;;0.80;0.60;;;1.20;99.90;;;;;;6072351;23;20482;-74
2023/03/15 02:52:07;;;;;;;1.00;0.50;;;1.10;99.90;;;;;;6071240;23;20473;-72
2023/03/15 02:54:35;;;;;;;2.83;0.57;;;1.10;99.90;;;;;;6072155;23;20695;-74
2023/03/15 02:57:01;;;;;;;1.40;0.90;;;1.10;99.90;;;;;;6072338;23;20365;-73
2023/03/15 02:59:28;;;;;;;1.83;1.20;;;1.00;99.90;;;;;;6070623;23;20402;-73
2023/03/15 03:01:54;;;;;;;1.37;0.93;;;1.00;99.90;;;;;;6073205;23;20672;-73
2023/03/15 03:04:22;;;;;;;2.40;1.10;;;1.10;99.90;;;;;;6079353;23;20152;-73
2023/03/15 03:06:48;;;;;;;1.30;0.90;;;1.10;99.90;;;;;;6072156;23;20145;-73
2023/03/15 03:09:18;;;;;;;1.13;0.80;;;1.10;99.90;;;;;;6070483;23;20381;-74
2023/03/15 03:11:44;;;;;;;2.70;0.90;;;1.20;99.90;;;;;;6070987;23;20425;-73
2023/03/15 03:14:14;;;;;;;2.20;1.33;;;1.20;99.90;;;;;;6069775;23;20651;-73
2023/03/15 03:16:41;;;;;;;1.27;1.07;;;1.30;99.90;;;;;;6070750;23;20376;-72
2023/03/15 03:19:13;;;;;;;2.07;1.17;;;1.40;99.90;;;;;;6071094;23;20384;-73
2023/03/15 03:21:42;;;;;;;2.47;1.30;;;1.40;99.90;;;;;;6071033;23;20425;-73
2023/03/15 03:24:15;;;;;;;4.00;2.20;;;1.40;99.90;;;;;;6070738;23;20409;-73
2023/03/15 03:26:40;;;;;;;3.03;2.00;;;1.50;99.90;;;;;;6071607;23;20850;-73
2023/03/15 03:29:06;;;;;;;3.80;2.60;;;1.50;99.90;;;;;;6070428;23;20381;-73
2023/03/15 03:31:34;;;;;;;4.50;2.60;;;1.40;99.90;;;;;;6070582;23;20144;-72
2023/03/15 03:34:01;;;;;;;4.27;2.00;;;1.40;99.90;;;;;;6070239;23;20280;-72
2023/03/15 03:36:28;;;;;;;3.67;1.90;;;1.50;99.90;;;;;;6070071;23;20492;-74
2023/03/15 03:38:55;;;;;;;4.50;2.10;;;1.50;99.90;;;;;;6070346;23;20366;-72
2023/03/15 03:41:21;;;;;;;3.83;1.73;;;1.50;99.90;;;;;;6070080;23;20433;-72
2023/03/15 03:43:47;;;;;;;4.60;2.23;;;1.60;99.90;;;;;;6071248;23;20690;-73
2023/03/15 03:46:13;;;;;;;3.00;2.37;;;1.60;99.90;;;;;;6070144;23;20142;-72
2023/03/15 03:48:44;;;;;;;3.10;2.17;;;1.60;99.90;;;;;;6071048;23;20172;-74
2023/03/15 03:51:10;;;;;;;3.20;2.17;;;1.60;99.90;;;;;;6071164;23;20939;-73
2023/03/15 03:53:36;;;;;;;4.70;2.57;;;1.60;99.90;;;;;;6070552;23;20161;-74
2023/03/15 03:56:06;;;;;;;4.50;2.10;;;1.60;99.90;;;;;;6071564;23;20288;-73
2023/03/15 03:58:33;;;;;;;2.63;1.90;;;1.60;99.90;;;;;;6073967;23;20385;-73
2023/03/15 04:01:05;;;;;;;7.60;3.00;;;1.60;99.90;;;;;;6077688;23;20460;-73
2023/03/15 04:03:33;;;;;;;6.13;3.13;;;1.60;99.90;;;;;;6076193;23;20448;-72
2023/03/15 04:06:06;;;;;;;5.43;3.17;;;1.60;99.90;;;;;;6076406;23;20433;-75
2023/03/15 04:08:35;;;;;;;4.23;2.30;;;1.70;99.90;;;;;;6075287;23;20378;-73
2023/03/15 04:11:04;;;;;;;5.50;3.10;;;1.70;99.90;;;;;;6077004;23;20409;-73
2023/03/15 04:13:32;;;;;;;2.90;2.07;;;1.70;99.90;;;;;;6075167;23;20385;-73
2023/03/15 04:16:02;;;;;;;5.00;3.40;;;1.70;99.90;;;;;;6074555;23;20393;-73
2023/03/15 04:18:31;;;;;;;6.97;3.70;;;1.80;99.90;;;;;;6051962;23;20388;-74
2023/03/15 04:20:59;;;;;;;4.10;2.40;;;1.80;99.90;;;;;;6074751;23;20402;-74
2023/03/15 04:23:25;;;;;;;4.60;2.77;;;1.80;99.90;;;;;;6077515;23;20358;-72
2023/03/15 04:26:09;;;;;;;3.20;2.20;;;1.80;99.90;;;;;;6077863;23;20361;-74
2023/03/15 04:28:48;;;;;;;4.60;3.03;;;1.80;99.90;;;;;;6077400;23;20720;-73
2023/03/15 04:31:41;;;;;;;3.43;2.20;;;1.80;99.90;;;;;;6069669;23;20405;-73
2023/03/15 04:34:37;;;;;;;7.20;2.73;;;1.80;99.90;;;;;;6077604;23;20421;-74
2023/03/15 04:37:26;;;;;;;3.30;2.50;;;1.80;99.90;;;;;;6076707;23;20398;-73
2023/03/15 04:40:00;;;;;;;5.80;3.90;;;1.80;99.90;;;;;;6054893;23;20398;-72
2023/03/15 04:42:45;;;;;;;7.67;4.60;;;1.80;99.90;;;;;;6081569;23;20492;-74
2023/03/15 04:45:35;;;;;;;6.80;3.93;;;1.70;99.90;;;;;;6057101;23;20385;-72
2023/03/15 04:48:19;;;;;;;8.60;4.57;;;1.60;99.90;;;;;;6077277;23;20361;-73
2023/03/15 04:50:56;;;;;;;13.20;4.30;;;1.50;99.90;;;;;;6077391;23;20857;-73
2023/03/15 04:53:32;;;;;;;9.90;4.30;;;1.50;99.90;;;;;;6074828;23;20377;-74
2023/03/15 04:56:11;;;;;;;5.13;3.23;;;1.50;99.90;;;;;;6073520;23;20358;-72
2023/03/15 04:58:47;;;;;;;3.50;2.10;;;1.50;99.90;;;;;;6071066;23;20779;-73
2023/03/15 05:01:27;;;;;;;4.90;2.83;;;1.40;99.90;;;;;;6074975;23;20421;-73
2023/03/15 05:04:14;;;;;;;4.60;2.60;;;1.40;99.90;;;;;;6077624;23;20398;-73
2023/03/15 05:06:49;;;;;;;4.60;3.73;;;1.40;99.90;;;;;;6088029;23;20745;-72
2023/03/15 05:09:46;;;;;;;9.97;5.77;;;1.30;99.90;;;;;;6078204;23;20397;-73
2023/03/15 05:12:35;;;;;;;8.17;4.50;;;1.30;99.90;;;;;;6079005;23;20440;-75
2023/03/15 05:15:21;;;;;;;11.47;6.10;;;1.30;99.90;;;;;;6081974;23;20388;-74
2023/03/15 05:18:13;;;;;;;7.00;4.73;;;1.40;99.90;;;;;;6080552;23;20841;-73
2023/03/15 05:21:04;;;;;;;6.00;4.13;;;1.30;99.90;;;;;;6078742;23;20444;-74
2023/03/15 05:23:48;;;;;;;8.20;4.60;;;1.40;99.90;;;;;;6079964;23;20381;-75
2023/03/15 05:26:29;;;;;;;9.27;5.13;;;1.40;99.90;;;;;;6080359;23;20655;-74
2023/03/15 05:29:22;;;;;;;6.77;4.67;;;1.40;99.90;;;;;;6079434;23;20407;-74
2023/03/15 05:31:51;;;;;;;7.10;4.23;;;1.40;99.90;;;;;;6090653;23;20370;-74
2023/03/15 05:34:39;;;;;;;8.60;6.27;;;1.40;99.90;;;;;;6080206;23;20398;-74
2023/03/15 05:37:32;;;;;;;9.60;7.00;;;1.40;99.90;;;;;;6063196;23;20401;-76
2023/03/15 05:40:19;;;;;;;13.97;8.43;;;1.40;99.90;;;;;;6079208;23;20397;-74
2023/03/15 05:42:56;;;;;;;12.40;7.23;;;1.30;99.90;;;;;;6082843;23;20432;-75
2023/03/15 05:45:36;;;;;;;9.07;6.30;;;1.40;99.90;;;;;;6081335;23;20382;-76
2023/03/15 05:48:20;;;;;;;11.47;5.10;;;1.40;99.90;;;;;;6084445;23;20381;-73
2023/03/15 05:51:02;;;;;;;9.00;5.17;;;1.50;99.90;;;;;;6081384;23;20502;-76
2023/03/15 05:53:43;;;;;;;7.60;4.60;;;1.40;99.90;;;;;;6064300;23;20374;-76
2023/03/15 05:56:27;;;;;;;9.53;5.53;;;1.50;99.90;;;;;;6085294;23;20704;-76
2023/03/15 05:59:11;;;;;;;10.30;6.90;;;1.60;99.90;;;;;;6083359;23;20384;-75
2023/03/15 06:01:58;;;;;;;9.53;6.47;;;1.60;99.90;;;;;;6079916;23;20444;-75
2023/03/15 06:04:31;;;;;;;14.50;7.50;;;1.70;99.90;;;;;;6057532;23;20389;-75
2023/03/15 06:06:59;;;;;;;15.07;7.20;;;1.70;99.90;;;;;;6079604;23;20681;-76
2023/03/15 06:09:25;;;;;;;13.33;8.10;;;1.70;99.90;;;;;;6057400;23;20429;-74
2023/03/15 06:11:51;;;;;;;14.37;7.70;;;1.70;99.90;;;;;;6081544;23;20426;-73
2023/03/15 06:14:16;;;;;;;10.10;6.50;;;1.70;99.90;;;;;;6084500;23;20157;-73
2023/03/15 06:16:51;;;;;;;12.83;6.50;;;1.70;99.90;;;;;;6082266;23;20413;-74
2023/03/15 06:19:17;;;;;;;14.67;7.40;;;1.70;99.90;;;;;;6079887;23;20381;-74
2023/03/15 06:21:44;;;;;;;13.90;9.83;;;1.70;99.90;;;;;;6083697;23;20413;-74
2023/03/15 06:24:23;;;;;;;14.87;9.43;;;1.80;99.90;;;;;;6084370;23;20376;-77
2023/03/15 06:26:53;;;;;;;21.20;11.70;;;1.80;99.90;;;;;;6068359;23;20401;-75
2023/03/15 06:29:20;;;;;;;22.90;11.43;;;1.80;99.90;;;;;;6087891;23;20416;-77
2023/03/15 06:31:48;;;;;;;16.07;8.90;;;1.80;99.90;;;;;;6086415;23;20456;-74
2023/03/15 06:34:17;;;;;;;23.13;11.40;;;1.80;99.90;;;;;;6063687;23;20362;-74
2023/03/15 06:36:44;;;;;;;19.20;10.90;;;1.80;99.90;;;;;;6088211;23;20368;-75
2023/03/15 06:39:11;;;;;;;16.80;8.90;;;1.80;99.90;;;;;;6087873;23;20385;-75
2023/03/15 06:41:38;;;;;;;16.93;9.10;;;1.90;99.90;;;;;;6060107;23;20405;-76
2023/03/15 06:44:12;;;;;;;21.20;11.60;;;1.90;99.90;;;;;;6061462;23;20388;-76
2023/03/15 06:46:39;;;;;;;21.30;10.80;;;1.90;99.90;;;;;;6013897;23;20385;-75
2023/03/15 06:49:05;;;;;;;20.43;11.17;;;2.00;99.90;;;;;;6059850;23;20373;-75
2023/03/15 06:51:31;;;;;;;24.50;11.67;;;2.00;99.90;;;;;;6084780;23;20358;-77
2023/03/15 06:53:57;;;;;;;21.17;11.37;;;2.00;99.90;;;;;;6061907;23;20145;-77
2023/03/15 06:56:24;;;;;;;19.27;10.03;;;2.00;99.90;;;;;;6086258;23;20141;-75
2023/03/15 06:58:51;;;;;;;19.10;9.97;;;2.00;99.90;;;;;;6065863;23;20400;-77
2023/03/15 07:01:17;;;;;;;17.37;10.87;;;2.10;99.90;;;;;;6063363;23;20534;-77
2023/03/15 07:03:45;;;;;;;19.40;11.60;;;2.10;99.90;;;;;;6039145;23;20369;-75
2023/03/15 07:06:10;;;;;;;19.70;11.13;;;2.20;99.90;;;;;;6059095;23;20374;-76
2023/03/15 07:08:36;;;;;;;26.93;14.17;;;2.20;99.90;;;;;;6060225;23;20408;-74
2023/03/15 07:11:02;;;;;;;25.27;12.00;;;2.30;99.90;;;;;;6079336;23;20165;-76
2023/03/15 07:13:28;;;;;;;27.90;13.70;;;2.20;99.90;;;;;;6087002;23;20141;-74
2023/03/15 07:15:55;;;;;;;19.83;10.43;;;2.30;99.90;;;;;;6088882;23;20499;-77
2023/03/15 07:18:21;;;;;;;29.20;14.50;;;2.40;99.90;;;;;;6060156;23;20160;-74
2023/03/15 07:20:59;;;;;;;21.83;11.87;;;2.40;99.90;;;;;;6085906;23;20709;-75
2023/03/15 07:23:25;;;;;;;18.70;10.50;;;2.50;99.90;;;;;;6040234;23;20817;-77
2023/03/15 07:25:50;;;;;;;22.93;10.97;;;2.50;99.90;;;;;;6060555;23;20377;-76
2023/03/15 07:28:17;;;;;;;27.17;13.57;;;2.60;99.90;;;;;;6088167;23;20193;-75
2023/03/15 07:30:51;;;;;;;37.10;18.00;;;2.60;99.90;;;;;;6062577;23;20168;-76
2023/03/15 07:33:21;;;;;;;21.50;11.80;;;2.70;99.90;;;;;;6086204;23;20404;-77
2023/03/15 07:35:50;;;;;;;20.00;12.23;;;2.60;99.90;;;;;;6088405;23;20453;-75
2023/03/15 07:38:16;;;;;;;21.43;11.83;;;2.60;99.90;;;;;;6086495;23;20442;-79
2023/03/15 07:40:42;;;;;;;16.10;9.70;;;2.60;99.90;;;;;;6065815;23;20414;-78
2023/03/15 07:43:11;;;;;;;15.73;9.20;;;2.60;99.90;;;;;;6088555;23;20441;-77
2023/03/15 07:45:37;;;;;;;20.23;10.90;;;2.50;99.90;;;;;;6066083;23;20381;-78
2023/03/15 07:48:04;;;;;;;14.70;9.07;;;2.50;99.90;;;;;;6118602;23;20813;-77
2023/03/15 07:50:31;;;;;;;25.20;14.30;;;2.50;99.90;;;;;;6093117;23;20537;-77
2023/03/15 07:52:58;;;;;;;21.60;12.30;;;2.50;99.90;;;;;;6069574;23;20415;-76
2023/03/15 07:55:25;;;;;;;21.60;12.07;;;2.50;99.90;;;;;;6093890;23;20361;-76
2023/03/15 07:57:51;;;;;;;31.50;15.27;;;2.50;99.90;;;;;;6030890;23;20420;-75
2023/03/15 08:00:17;;;;;;;28.83;14.80;;;2.50;99.90;;;;;;6029837;23;20256;-69
2023/03/15 08:02:43;;;;;;;41.00;18.27;;;2.50;99.90;;;;;;6061376;23;20529;-76
2023/03/15 08:05:20;;;;;;;34.60;17.83;;;2.40;99.90;;;;;;6059782;23;20343;-78
2023/03/15 08:07:59;;;;;;;39.37;18.10;;;2.30;99.90;;;;;;6038833;23;20142;-78
2023/03/15 08:11:00;;;;;;;37.43;17.37;;;2.40;99.90;;;;;;6010117;23;20411;-77
2023/03/15 08:17:11;;;;;;;35.30;15.70;;;2.50;99.90;;;;;;6005506;23;20424;-77
2023/03/15 08:20:32;;;;;;;27.07;13.90;;;2.60;99.90;;;;;;5899297;24;20396;-80
2023/03/15 08:26:35;;;;;;;43.73;19.10;;;2.70;99.90;;;;;;5898105;24;20490;-79
2023/03/15 08:29:23;;;;;;;31.20;15.73;;;2.60;99.90;;;;;;5825217;24;20397;-77
2023/03/15 08:31:59;;;;;;;27.63;14.77;;;2.60;99.90;;;;;;5861655;24;20399;-75
2023/03/15 08:37:05;;;;;;;44.73;17.40;;;2.70;99.90;;;;;;6060662;23;20456;-76
2023/03/15 08:40:39;;;;;;;;;;;;;;;;;;;;;
2023/03/15 08:43:33;;;;;;;22.50;9.77;;;2.70;99.90;;;;;;6116988;23;20400;-75
2023/03/15 08:46:11;;;;;;;22.90;11.60;;;3.00;99.90;;;;;;6072753;23;20917;-74
2023/03/15 08:48:48;;;;;;;32.40;15.10;;;3.10;99.90;;;;;;6092818;23;20665;-73
2023/03/15 08:51:28;;;;;;;35.33;18.80;;;3.30;99.90;;;;;;6092176;23;20389;-75
2023/03/15 08:53:54;;;;;;;38.43;20.53;;;3.30;99.90;;;;;;6092399;23;20383;-75
2023/03/15 08:56:31;;;;;;;43.90;20.47;;;3.30;99.90;;;;;;6090060;23;20365;-75
2023/03/15 08:59:15;;;;;;;36.73;19.00;;;3.40;99.90;;;;;;6111224;23;20368;-74
2023/03/15 09:01:43;;;;;;;25.30;13.80;;;3.40;99.90;;;;;;6118391;23;20396;-72
2023/03/15 09:04:09;;;;;;;39.03;18.40;;;3.50;99.90;;;;;;6091572;23;20400;-72
2023/03/15 09:06:36;;;;;;;30.23;17.47;;;3.70;99.90;;;;;;6088600;23;20436;-72
2023/03/15 09:09:04;;;;;;;25.07;12.13;;;3.70;99.90;;;;;;6112526;23;20363;-73
2023/03/15 09:11:30;;;;;;;21.63;13.90;;;3.70;99.90;;;;;;6088557;23;20471;-73
2023/03/15 09:13:56;;;;;;;20.20;11.50;;;3.60;99.90;;;;;;6112651;23;20388;-73
2023/03/15 09:16:22;;;;;;;24.00;14.43;;;3.50;99.90;;;;;;6114100;23;20172;-73
2023/03/15 09:18:48;;;;;;;26.80;15.40;;;3.60;99.90;;;;;;6114100;23;20384;-75
2023/03/15 09:21:28;;;;;;;25.80;15.00;;;3.60;99.90;;;;;;6092022;23;20420;-78
2023/03/15 09:27:52;;;;;;;25.90;14.57;;;3.80;99.90;;;;;;6062946;23;20445;-76
2023/03/15 09:30:23;;;;;;;15.93;11.43;;;3.80;99.90;;;;;;6066532;23;20458;-77
2023/03/15 09:32:53;;;;;;;15.10;11.27;;;3.70;99.90;;;;;;6089900;23;20389;-77
2023/03/15 09:38:14;;;;;;;25.27;15.27;;;3.30;99.90;;;;;;6057682;23;20495;-77
2023/03/15 09:41:10;;;;;;;18.23;11.27;;;3.40;99.90;;;;;;6034869;23;20409;-79
2023/03/15 09:46:48;;;;;;;26.63;14.43;;;3.30;99.90;;;;;;6057239;23;21400;-77
2023/03/15 09:56:06;;;;;;;25.73;12.13;;;3.40;99.90;;;;;;6062066;23;20455;-78
2023/03/15 10:03:00;;;;;;;;;;;;;;;;;;;;;
2023/03/15 10:06:22;;;;;;;33.50;15.20;;;3.40;99.90;;;;;;6087652;23;20404;-78
2023/03/15 10:08:58;;;;;;;28.67;12.30;;;3.30;99.90;;;;;;6065491;23;20393;-77
2023/03/15 10:15:03;;;;;;;43.43;16.30;;;3.60;99.90;;;;;;6058931;23;20449;-78
2023/03/15 10:18:02;;;;;;;19.13;10.80;;;3.70;99.90;;;;;;6036341;23;20406;-74
2023/03/15 10:21:06;;;;;;;25.57;13.13;;;3.90;99.90;;;;;;6057521;23;20405;-76
2023/03/15 10:26:28;;;;;;;27.97;11.90;;;4.10;99.90;;;;;;6087975;23;20441;-78
2023/03/15 10:28:59;;;;;;;14.47;9.43;;;4.40;99.90;;;;;;6018990;23;20421;-77
2023/03/15 10:31:32;;;;;;;36.20;12.33;;;4.50;99.90;;;;;;6067671;23;20397;-78
2023/03/15 10:34:08;;;;;;;12.57;9.23;;;4.60;99.90;;;;;;6088986;23;20358;-77
2023/03/15 10:36:56;;;;;;;14.87;8.13;;;4.70;99.90;;;;;;6072697;23;20450;-77
2023/03/15 10:39:24;;;;;;;15.13;9.93;;;4.90;99.90;;;;;;6062050;23;20386;-77
2023/03/15 10:41:50;;;;;;;18.47;9.10;;;5.20;99.90;;;;;;6063796;23;20428;-76
2023/03/15 10:44:44;;;;;;;15.03;7.00;;;5.30;99.90;;;;;;6090905;23;20374;-77
2023/03/15 10:47:18;;;;;;;11.33;7.67;;;5.10;99.90;;;;;;6089446;23;20417;-78
2023/03/15 10:49:44;;;;;;;17.03;7.20;;;4.70;99.90;;;;;;6088074;23;20416;-76
2023/03/15 10:52:40;;;;;;;7.93;7.10;;;4.60;99.90;;;;;;6063993;23;20420;-75
2023/03/15 10:55:16;;;;;;;10.10;6.67;;;4.50;99.90;;;;;;6083619;23;20472;-75
2023/03/15 10:58:33;;;;;;;12.30;6.23;;;4.70;99.90;;;;;;6086957;23;20654;-75
2023/03/15 11:01:26;;;;;;;10.63;5.67;;;4.80;99.90;;;;;;6092681;23;20408;-77
2023/03/15 11:04:29;;;;;;;14.47;5.90;;;5.00;99.90;;;;;;6094036;23;20414;-75
2023/03/15 11:07:18;;;;;;;9.27;5.57;;;5.20;99.90;;;;;;6040896;23;20406;-77
2023/03/15 11:12:33;;;;;;;8.07;6.50;;;5.30;99.90;;;;;;6035300;23;20391;-74
2023/03/15 11:15:09;;;;;;;9.47;4.83;;;5.80;99.90;;;;;;6006796;23;20451;-74
2023/03/15 11:17:42;;;;;;;7.97;3.90;;;6.10;99.90;;;;;;6008026;23;20433;-75
2023/03/15 11:20:29;;;;;;;5.70;3.97;;;6.40;99.90;;;;;;6025109;23;20406;-73
2023/03/15 11:22:57;;;;;;;9.53;4.77;;;6.10;99.90;;;;;;6058626;23;20409;-69
2023/03/15 11:25:30;;;;;;;9.40;3.60;;;6.20;99.90;;;;;;6007142;23;20411;-70
2023/03/15 11:27:56;;;;;;;8.13;4.27;;;6.50;99.90;;;;;;6032345;23;20406;-69
2023/03/15 11:30:28;;;;;;;6.53;3.37;;;6.70;99.90;;;;;;6007720;23;20418;-70
2023/03/15 11:32:57;;;;;;;6.47;3.27;;;7.00;99.90;;;;;;6030374;23;20374;-70
2023/03/15 11:35:32;;;;;;;8.53;2.70;;;7.20;99.90;;;;;;6030028;23;20390;-70
2023/03/15 11:38:05;;;;;;;5.53;3.73;;;7.40;88.80;;;;;;6030187;23;20377;-71
2023/03/15 11:40:42;;;;;;;7.50;2.40;;;7.40;82.50;;;;;;6030825;23;20425;-71
2023/03/15 11:43:16;;;;;;;6.20;2.70;;;7.40;69.20;;;;;;6036213;23;20406;-69
2023/03/15 11:46:03;;;;;;;6.23;2.30;;;7.60;90.20;;;;;;6034455;23;20410;-70
2023/03/15 11:48:47;;;;;;;4.63;2.17;;;7.70;65.10;;;;;;6011119;23;20389;-70
2023/03/15 11:51:13;;;;;;;5.97;3.33;;;7.70;60.60;;;;;;6029258;23;20398;-69
2023/03/15 11:54:03;;;;;;;5.30;2.73;;;7.80;60.80;;;;;;6036495;23;20469;-77
2023/03/15 11:57:26;;;;;;;4.80;2.13;;;7.90;64.40;;;;;;6017971;23;20406;-79
2023/03/15 12:08:45;;;;;;;5.43;1.87;;;7.90;58.30;;;;;;6078338;23;20763;-75
2023/03/15 12:11:32;;;;;;;4.57;2.10;;;8.00;60.10;;;;;;6066031;23;20389;-75
2023/03/15 12:14:05;;;;;;;4.30;2.30;;;7.90;57.20;;;;;;6064954;23;20385;-75
2023/03/15 12:17:18;;;;;;;8.10;2.87;;;8.10;57.40;;;;;;6072316;23;20342;-77
2023/03/15 12:20:33;;;;;;;5.80;2.70;;;8.30;59.80;;;;;;6070992;23;20393;-76
2023/03/15 12:25:37;;;;;;;4.90;2.13;;;8.40;57.60;;;;;;6089452;23;20451;-76
2023/03/15 12:28:09;;;;;;;5.57;2.83;;;8.50;55.70;;;;;;6065858;23;20464;-76
2023/03/15 12:30:44;;;;;;;8.87;2.80;;;8.80;58.00;;;;;;6044999;23;20421;-77
2023/03/15 12:33:57;;;;;;;6.57;2.40;;;8.70;52.80;;;;;;5998429;23;20385;-76
2023/03/15 12:36:36;;;;;;;7.13;2.77;;;8.50;50.80;;;;;;6072419;23;20370;-77
2023/03/15 12:39:57;;;;;;;4.90;2.10;;;8.40;51.00;;;;;;6043086;23;20440;-77
2023/03/15 12:42:46;;;;;;;5.73;2.03;;;8.10;50.70;;;;;;5989834;23;20760;-77
2023/03/15 12:45:50;;;;;;;5.73;1.80;;;8.20;51.60;;;;;;5983313;24;20375;-77
2023/03/15 12:49:06;;;;;;;3.70;2.40;;;8.20;50.20;;;;;;6089020;23;20429;-78
2023/03/15 12:52:00;;;;;;;5.30;2.10;;;8.20;50.80;;;;;;6045394;23;20406;-76
2023/03/15 12:54:40;;;;;;;4.67;2.53;;;8.30;51.40;;;;;;6045394;23;20477;-78
2023/03/15 12:57:30;;;;;;;5.07;2.40;;;8.50;51.90;;;;;;5978755;23;20382;-78
2023/03/15 13:00:18;;;;;;;2.93;2.50;;;8.80;51.60;;;;;;6019304;23;20420;-78
2023/03/15 13:03:05;;;;;;;3.50;2.27;;;9.00;50.00;;;;;;6066544;23;20417;-76
2023/03/15 13:05:42;;;;;;;5.00;1.93;;;9.00;50.20;;;;;;6043847;23;20372;-78
2023/03/15 13:08:32;;;;;;;4.60;1.90;;;9.10;51.60;;;;;;6041881;23;20389;-77
2023/03/15 13:11:23;;;;;;;5.47;1.80;;;9.00;49.20;;;;;;6041651;23;20389;-79
2023/03/15 13:14:37;;;;;;;5.10;1.60;;;9.00;48.90;;;;;;6078540;23;20397;-78
2023/03/15 13:17:45;;;;;;;5.30;2.70;;;8.80;49.70;;;;;;6044066;23;20378;-78
2023/03/15 13:21:01;;;;;;;2.57;1.77;;;8.80;48.70;;;;;;6069329;23;20436;-75
2023/03/15 13:23:29;;;;;;;3.57;2.10;;;8.70;48.30;;;;;;6041383;23;20392;-75
2023/03/15 13:26:16;;;;;;;3.33;1.50;;;8.80;48.50;;;;;;6039578;23;20388;-76
2023/03/15 13:29:16;;;;;;;5.30;2.07;;;8.90;47.20;;;;;;6044385;23;20454;-77
2023/03/15 13:31:46;;;;;;;8.50;2.63;;;8.80;44.90;;;;;;6057567;23;20370;-75
2023/03/15 13:34:23;;;;;;;3.87;1.70;;;8.70;45.20;;;;;;6043307;23;20398;-75
2023/03/15 13:37:01;;;;;;;6.90;1.87;;;8.70;46.00;;;;;;6044055;23;20378;-75
2023/03/15 13:39:33;;;;;;;3.07;1.30;;;8.80;45.50;;;;;;6063589;23;20488;-76
2023/03/15 13:42:05;;;;;;;5.67;1.80;;;8.80;45.50;;;;;;6064998;23;20504;-75
2023/03/15 13:47:25;;;;;;;6.37;2.07;;;9.00;44.70;;;;;;6090888;23;20424;-75
2023/03/15 13:50:02;;;;;;;3.80;1.90;;;9.20;45.70;;;;;;6021519;23;20402;-77
2023/03/15 13:52:28;;;;;;;5.20;1.70;;;9.30;44.60;;;;;;6066497;23;20370;-75
2023/03/15 13:55:02;;;;;;;3.53;2.00;;;9.40;44.60;;;;;;6019468;23;20365;-76
2023/03/15 13:57:28;;;;;;;5.97;2.70;;;9.30;44.00;;;;;;5996341;23;20373;-76
2023/03/15 14:00:10;;;;;;;3.77;1.90;;;9.20;44.80;;;;;;6041564;23;20389;-76
2023/03/15 14:19:55;;;;;;;5.53;2.30;;;9.70;42.90;;;;;;6061757;23;20434;-78
2023/03/15 14:22:28;;;;;;;3.97;1.93;;;9.50;44.40;;;;;;6065316;23;20169;-77
2023/03/15 14:24:57;;;;;;;4.90;1.73;;;9.70;43.50;;;;;;6017448;23;20399;-77
2023/03/15 14:54:29;;;;;;;5.83;2.37;;;8.60;44.30;;;;;;6085748;23;20485;-77
2023/03/15 14:57:03;;;;;;;8.90;3.10;;;8.60;42.90;;;;;;6034535;23;20406;-78
2023/03/15 15:02:05;;;;;;;4.20;2.07;;;8.70;42.60;;;;;;5862840;23;5124312;-76
2023/03/15 15:04:46;;;;;;;3.00;1.40;;;8.70;43.30;;;;;;6005089;23;20366;-77
2023/03/15 15:09:59;;;;;;;2.83;1.30;;;8.80;43.20;;;;;;6087518;23;21166;-76
2023/03/15 15:19:03;;;;;;;3.57;2.07;;;9.00;42.60;;;;;;6094174;23;20460;-72
2023/03/15 15:21:33;;;;;;;4.33;1.53;;;8.90;42.40;;;;;;6047524;23;20429;-74
2023/03/15 15:24:13;;;;;;;5.33;1.30;;;8.90;41.90;;;;;;6048688;23;20373;-74